Time;durP1;ratioP1;P1;durP2;ratioP2;P2;SDS_P1;SDS_P2;PMS_P1;PMS_P2;Temp;Humidity;BMP_temperature;BMP_pressure;BME280_temperature;BME280_humidity;BME280_pressure;Samples;Min_cycle;Max_cycle;Signal;HPM_P1;HPM_P2
2023/02/22 00:00:41;;;;;;;20.42;7.00;;;;;;;-11.88;62.10;98181.59;5082698;28;20064;-36
2023/02/22 00:03:14;;;;;;;22.27;7.63;;;;;;;-11.60;61.77;98214.09;5086053;28;20051;-36
2023/02/22 00:05:45;;;;;;;19.27;6.97;;;;;;;-11.79;61.39;98182.69;5074487;28;20071;-36
2023/02/22 00:08:13;;;;;;;25.67;6.85;;;;;;;-11.53;61.91;98223.50;5087368;28;20032;-37
2023/02/22 00:10:39;;;;;;;19.25;5.70;;;;;;;-11.52;61.28;98222.72;5117999;27;20072;-36
2023/02/22 00:13:09;;;;;;;17.52;7.82;;;;;;;-11.52;61.40;98222.72;5083123;28;20075;-36
2023/02/22 00:15:35;;;;;;;21.20;6.97;;;;;;;-11.50;61.34;98233.59;5077127;28;20419;-37
2023/02/22 00:18:03;;;;;;;25.83;7.97;;;;;;;-11.50;61.29;98236.13;5088560;28;20131;-37
2023/02/22 00:20:29;;;;;;;19.85;6.03;;;;;;;-11.72;61.56;98194.56;5072320;28;20079;-38
2023/02/22 00:22:55;;;;;;;21.25;7.75;;;;;;;-11.51;60.91;98243.63;5068487;28;20379;-38
2023/02/22 00:25:23;;;;;;;21.30;7.00;;;;;;;-11.53;61.04;98248.56;5069576;28;20134;-39
2023/02/22 00:27:52;;;;;;;16.20;7.05;;;;;;;-11.60;61.39;98256.72;5075060;28;20056;-39
2023/02/22 00:30:20;;;;;;;;;;;;;;;-11.59;61.33;98260.94;5062248;28;20048;-36
2023/02/22 00:32:46;;;;;;;22.40;7.05;;;;;;;-11.84;60.75;98228.47;5070949;28;20035;-36
2023/02/22 00:35:13;;;;;;;21.65;7.10;;;;;;;-11.64;61.51;98264.94;5076457;28;20044;-37
2023/02/22 00:37:40;;;;;;;22.85;7.90;;;;;;;-11.98;61.25;98203.00;5050745;28;20048;-42
2023/02/22 00:40:11;;;;;;;25.42;8.52;;;;;;;-11.57;60.81;98278.53;5065040;28;20047;-36
2023/02/22 00:42:38;;;;;;;19.38;6.85;;;;;;;-11.53;61.24;98267.78;5069262;28;20040;-37
2023/02/22 00:45:06;;;;;;;18.60;7.05;;;;;;;-11.59;60.61;98260.94;5050708;28;20032;-41
2023/02/22 00:47:34;;;;;;;;;;;;;;;-11.51;60.76;98283.72;5067965;28;20091;-36
2023/02/22 00:50:00;;;;;;;14.27;5.68;;;;;;;-11.53;60.36;98283.66;5090687;28;19920;-37
2023/02/22 00:52:27;;;;;;;18.80;7.60;;;;;;;-11.51;60.68;98291.25;5082824;28;20044;-37
2023/02/22 00:54:54;;;;;;;21.17;6.20;;;;;;;-11.50;60.60;98285.41;5085596;28;20404;-39
2023/02/22 00:57:21;;;;;;;21.13;8.18;;;;;;;-11.58;60.69;98285.19;5064958;28;20142;-38
2023/02/22 00:59:47;;;;;;;19.58;7.65;;;;;;;-11.64;60.93;98280.84;5088783;28;20043;-36
2023/02/22 01:02:13;;;;;;;23.63;7.53;;;;;;;-11.70;60.62;98288.16;5077207;28;20442;-35
2023/02/22 01:04:39;;;;;;;23.40;7.35;;;;;;;-11.71;60.75;98288.97;5065709;28;20063;-38
2023/02/22 01:07:05;;;;;;;18.48;7.18;;;;;;;-11.75;60.68;98284.72;5083293;28;20057;-38
2023/02/22 01:09:31;;;;;;;21.05;7.53;;;;;;;-11.79;60.53;98284.56;5095451;28;20135;-36
2023/02/22 01:11:57;;;;;;;22.73;7.70;;;;;;;-11.81;60.88;98298.69;5075190;28;20036;-36
2023/02/22 01:14:26;;;;;;;22.67;7.28;;;;;;;-11.86;60.94;98293.56;5089182;28;20044;-37
2023/02/22 01:16:54;;;;;;;20.13;7.18;;;;;;;-12.15;60.58;98256.75;5071811;28;20035;-37
2023/02/22 01:19:21;;;;;;;20.95;7.82;;;;;;;-11.93;60.78;98298.34;5079196;28;20039;-37
2023/02/22 01:21:48;;;;;;;20.75;7.72;;;;;;;-11.94;61.31;98305.00;5078338;28;20047;-35
2023/02/22 01:24:15;;;;;;;21.40;7.50;;;;;;;-11.97;60.81;98312.41;5049510;28;20440;-37
2023/02/22 01:26:49;;;;;;;18.98;7.95;;;;;;;-11.98;60.88;98298.16;5067176;28;20044;-37
2023/02/22 01:29:17;;;;;;;25.55;7.78;;;;;;;-11.93;60.58;98306.69;5091651;28;20040;-37
2023/02/22 01:31:50;;;;;;;23.15;7.43;;;;;;;-11.91;60.26;98309.25;5065116;28;20036;-39
2023/02/22 01:34:18;;;;;;;21.48;8.45;;;;;;;-11.90;60.77;98311.81;5053706;28;20033;-36
2023/02/22 01:36:44;;;;;;;21.92;8.20;;;;;;;-11.92;60.59;98310.91;5083856;28;20055;-37
2023/02/22 01:39:10;;;;;;;27.08;8.10;;;;;;;-11.94;60.99;98317.53;5061885;28;20045;-37
2023/02/22 01:41:37;;;;;;;20.83;6.43;;;;;;;-12.00;60.50;98326.50;5075386;28;20038;-40
2023/02/22 01:44:34;;;;;;;23.10;8.68;;;;;;;-12.05;60.50;98317.19;5085308;28;20075;-38
2023/02/22 01:47:02;;;;;;;22.23;7.45;;;;;;;-12.06;60.71;98329.66;5057388;28;20083;-36
2023/02/22 01:49:36;;;;;;;22.35;7.78;;;;;;;-12.10;60.90;98336.22;5057945;28;20083;-37
2023/02/22 01:52:07;;;;;;;18.00;7.00;;;;;;;-12.12;60.90;98337.81;5052557;28;20067;-36
2023/02/22 01:54:40;;;;;;;22.85;7.72;;;;;;;-12.15;61.13;98341.88;5086522;28;20124;-36
2023/02/22 01:57:13;;;;;;;14.32;5.70;;;;;;;-12.12;60.86;98352.84;5085589;28;20068;-37
2023/02/22 01:59:43;;;;;;;20.15;7.00;;;;;;;-12.09;60.89;98354.63;5087993;28;20047;-37
2023/02/22 02:02:09;;;;;;;17.80;5.55;;;;;;;-12.27;60.67;98319.78;5090616;28;20433;-36
2023/02/22 02:04:36;;;;;;;20.45;6.80;;;;;;;-12.01;60.88;98365.72;5089856;28;20093;-37
2023/02/22 02:07:04;;;;;;;22.15;7.82;;;;;;;-12.11;60.95;98327.00;5084637;28;20035;-37
2023/02/22 02:09:43;;;;;;;25.98;7.63;;;;;;;-11.84;60.46;98369.63;5072162;28;20507;-36
2023/02/22 02:12:11;;;;;;;28.77;8.48;;;;;;;-11.78;60.32;98368.97;5081992;28;20058;-35
2023/02/22 02:14:39;;;;;;;18.73;8.00;;;;;;;-11.76;60.56;98363.19;5065697;28;20555;-36
2023/02/22 02:17:08;;;;;;;22.77;7.93;;;;;;;-11.75;60.15;98369.91;5089817;28;20097;-37
2023/02/22 02:19:54;;;;;;;23.33;7.38;;;;;;;-11.76;59.94;98377.38;5071271;28;20076;-43
2023/02/22 02:22:47;;;;;;;18.00;6.25;;;;;;;-11.72;59.96;98369.97;5089455;28;20078;-38
2023/02/22 02:25:36;;;;;;;22.55;7.03;;;;;;;-11.70;60.25;98380.91;5072099;28;20032;-36
2023/02/22 02:28:21;;;;;;;23.33;6.47;;;;;;;-11.70;59.80;98380.03;5072330;28;20060;-36
2023/02/22 02:31:25;;;;;;;15.45;5.43;;;;;;;-11.72;59.66;98391.69;5086019;28;20072;-37
2023/02/22 02:34:02;;;;;;;13.90;6.20;;;;;;;-11.78;59.77;98392.38;5103285;28;20654;-36
2023/02/22 02:36:34;;;;;;;13.50;5.10;;;;;;;-11.86;59.62;98386.25;5041268;28;20047;-36
2023/02/22 02:39:16;;;;;;;22.08;7.00;;;;;;;-11.93;59.63;98394.34;5071875;28;20050;-35
2023/02/22 02:41:46;;;;;;;18.23;6.43;;;;;;;-11.91;59.63;98400.28;5069933;28;20028;-36
2023/02/22 02:44:16;;;;;;;10.55;4.97;;;;;;;-11.95;59.45;98402.63;5073160;28;20137;-36
2023/02/22 02:46:58;;;;;;;16.50;6.80;;;;;;;-12.19;59.42;98370.09;5053039;28;20048;-36
2023/02/22 02:49:32;;;;;;;15.13;6.45;;;;;;;-11.95;59.61;98403.50;5087350;28;20122;-42
2023/02/22 02:52:00;;;;;;;9.70;4.07;;;;;;;-11.95;59.75;98407.66;5071695;28;20048;-37
2023/02/22 02:54:26;;;;;;;18.55;6.70;;;;;;;-11.96;59.59;98406.78;5092871;28;20075;-36
2023/02/22 02:56:53;;;;;;;13.50;5.72;;;;;;;-11.95;59.54;98425.19;5108905;27;20040;-36
2023/02/22 02:59:25;;;;;;;18.70;6.75;;;;;;;-11.98;59.74;98415.91;5067790;28;20044;-40
2023/02/22 03:02:03;;;;;;;16.65;6.28;;;;;;;-11.94;59.58;98420.22;5069565;28;20036;-37
2023/02/22 03:04:53;;;;;;;18.58;6.38;;;;;;;-11.98;59.41;98417.59;5070887;28;20043;-36
2023/02/22 03:07:51;;;;;;;15.70;6.25;;;;;;;-12.00;59.09;98426.69;5085243;28;20037;-36
2023/02/22 03:10:25;;;;;;;19.42;7.30;;;;;;;-12.06;59.22;98424.81;5089235;28;20048;-37
2023/02/22 03:13:10;;;;;;;15.70;6.30;;;;;;;-12.04;59.23;98426.59;5094738;28;20501;-36
2023/02/22 03:16:15;;;;;;;18.85;6.22;;;;;;;-12.04;59.20;98429.09;5081902;28;20037;-36
2023/02/22 03:18:49;;;;;;;18.55;6.13;;;;;;;-12.07;59.29;98430.63;5072445;28;20131;-36
2023/02/22 03:21:22;;;;;;;18.98;6.45;;;;;;;-12.28;59.52;98394.84;5071611;28;20041;-36
2023/02/22 03:24:15;;;;;;;16.52;5.50;;;;;;;-12.04;59.16;98439.13;5089877;28;20122;-36
2023/02/22 03:26:51;;;;;;;16.10;6.38;;;;;;;-12.05;59.20;98451.59;5072460;28;20054;-34
2023/02/22 03:29:20;;;;;;;16.90;6.05;;;;;;;-12.07;59.62;98449.00;5069352;28;20489;-36
2023/02/22 03:31:52;;;;;;;12.15;5.18;;;;;;;-12.34;59.09;98408.00;5052532;28;20036;-36
2023/02/22 03:34:28;;;;;;;16.45;6.03;;;;;;;-12.14;59.22;98451.28;5078041;28;20063;-37
2023/02/22 03:37:22;;;;;;;13.52;5.78;;;;;;;-12.16;59.21;98461.22;5054130;28;20089;-36
2023/02/22 03:39:51;;;;;;;22.85;7.38;;;;;;;-12.64;59.27;98387.78;5068004;28;20526;-35
2023/02/22 03:42:21;;;;;;;18.13;6.72;;;;;;;-12.20;59.37;98469.44;5094015;28;20052;-36
2023/02/22 03:44:46;;;;;;;;;;;;;;;-12.19;59.14;98475.28;5077704;28;20123;-36
2023/02/22 03:47:23;;;;;;;16.33;5.85;;;;;;;-12.52;59.58;98433.25;5068665;28;19985;-36
2023/02/22 03:49:56;;;;;;;18.25;6.60;;;;;;;-12.25;59.45;98477.59;5058545;28;20048;-37
2023/02/22 03:52:23;;;;;;;16.00;6.45;;;;;;;-12.23;59.09;98479.34;5083006;28;20043;-36
2023/02/22 03:54:53;;;;;;;20.55;6.57;;;;;;;-12.20;59.24;98486.13;5085722;28;20044;-36
2023/02/22 03:57:25;;;;;;;16.92;6.10;;;;;;;-12.19;59.58;98491.16;5068916;28;20040;-35
2023/02/22 04:00:00;;;;;;;20.75;7.25;;;;;;;-12.20;59.44;98488.63;5065587;28;20035;-38
2023/02/22 04:02:29;;;;;;;17.52;6.15;;;;;;;-12.40;59.24;98457.84;5088822;28;20048;-40
2023/02/22 04:04:56;;;;;;;13.80;5.65;;;;;;;-12.15;59.33;98498.00;5069257;28;20131;-35
2023/02/22 04:07:22;;;;;;;23.05;7.68;;;;;;;-12.16;59.59;98505.44;5070844;28;20128;-36
2023/02/22 04:09:49;;;;;;;15.20;6.32;;;;;;;-12.24;59.31;98496.78;5103726;28;20515;-37
2023/02/22 04:12:15;;;;;;;20.88;6.55;;;;;;;-12.52;58.99;98464.94;5071833;28;20047;-36
2023/02/22 04:14:53;;;;;;;22.27;6.60;;;;;;;-12.31;59.27;98515.78;5084052;28;20046;-37
2023/02/22 04:17:19;;;;;;;18.23;7.03;;;;;;;-12.33;59.48;98509.84;5087867;28;20081;-36
2023/02/22 04:19:45;;;;;;;16.20;5.82;;;;;;;-12.55;59.65;98472.31;5053346;28;20043;-36
2023/02/22 04:22:12;;;;;;;22.45;5.82;;;;;;;-12.42;59.24;98508.66;5079538;28;20546;-37
2023/02/22 04:24:38;;;;;;;20.20;6.65;;;;;;;-12.47;59.75;98518.50;5051647;28;20055;-36
2023/02/22 04:27:04;;;;;;;23.55;7.80;;;;;;;-12.78;59.39;98476.50;5067553;28;20111;-36
2023/02/22 04:29:33;;;;;;;20.20;6.18;;;;;;;-12.56;59.62;98521.50;5080376;28;20047;-36
2023/02/22 04:32:00;;;;;;;17.58;7.10;;;;;;;-12.78;59.32;98485.66;5086047;28;20427;-37
2023/02/22 04:34:26;;;;;;;16.88;7.80;;;;;;;-12.58;59.49;98532.28;5069724;28;20040;-41
2023/02/22 04:36:52;;;;;;;25.75;8.20;;;;;;;-12.61;59.68;98534.69;5088647;28;20466;-38
2023/02/22 04:39:19;;;;;;;20.60;6.65;;;;;;;-12.63;59.60;98529.59;5087276;28;20040;-36
2023/02/22 04:41:46;;;;;;;16.08;6.60;;;;;;;-12.66;59.57;98544.50;5087647;28;20123;-36
2023/02/22 04:44:12;;;;;;;24.98;7.72;;;;;;;-12.62;59.39;98543.84;5087042;28;20544;-36
2023/02/22 04:46:39;;;;;;;18.95;6.60;;;;;;;-12.58;59.73;98550.66;5080450;28;20040;-36
2023/02/22 04:49:05;;;;;;;21.10;7.00;;;;;;;-12.61;58.83;98547.19;5087101;28;20048;-35
2023/02/22 04:51:35;;;;;;;11.68;6.13;;;;;;;-12.60;59.19;98548.88;5085530;28;20041;-37
2023/02/22 04:54:05;;;;;;;19.90;7.60;;;;;;;-13.05;59.39;98478.81;5087550;28;20043;-36
2023/02/22 04:56:33;;;;;;;15.88;6.22;;;;;;;-12.78;59.08;98510.66;5048078;28;20161;-36
2023/02/22 04:58:59;;;;;;;20.10;6.60;;;;;;;-12.59;58.73;98545.59;5087706;28;20507;-36
2023/02/22 05:01:25;;;;;;;24.30;6.60;;;;;;;-12.56;58.90;98553.22;5085568;28;20035;-37
2023/02/22 05:03:51;;;;;;;19.38;6.72;;;;;;;-12.54;58.91;98554.97;5067320;28;20517;-37
2023/02/22 05:06:17;;;;;;;24.08;7.13;;;;;;;-12.50;58.84;98550.91;5053849;28;20048;-36
2023/02/22 05:08:43;;;;;;;20.40;6.38;;;;;;;-12.66;58.83;98531.13;5071828;28;20066;-37
2023/02/22 05:11:09;;;;;;;24.63;6.68;;;;;;;-12.53;59.20;98546.66;5083771;28;20055;-36
2023/02/22 05:13:35;;;;;;;16.83;6.40;;;;;;;-12.43;58.66;98567.03;5084157;28;20036;-37
2023/02/22 05:16:02;;;;;;;20.02;6.60;;;;;;;-12.46;59.01;98566.13;5076697;28;20112;-36
2023/02/22 05:18:28;;;;;;;15.13;5.80;;;;;;;-12.42;59.10;98564.59;5111607;27;20036;-36
2023/02/22 05:20:54;;;;;;;27.35;6.53;;;;;;;-12.40;58.06;98568.00;5086906;28;20036;-37
2023/02/22 05:23:20;;;;;;;22.05;6.70;;;;;;;-12.40;58.58;98568.00;5088925;28;20036;-37
2023/02/22 05:25:46;;;;;;;18.58;6.07;;;;;;;-12.33;58.26;98579.94;5085841;28;20039;-41
2023/02/22 05:28:14;;;;;;;17.15;6.45;;;;;;;-12.27;58.24;98574.31;5068681;28;20035;-36
2023/02/22 05:30:40;;;;;;;18.35;6.22;;;;;;;-12.22;58.37;98583.72;5085442;28;20056;-44
2023/02/22 05:33:07;;;;;;;15.93;5.53;;;;;;;-12.21;57.77;98587.06;5062677;28;20036;-36
2023/02/22 05:35:33;;;;;;;14.93;6.10;;;;;;;-12.15;57.56;98594.81;5074565;28;20039;-37
2023/02/22 05:38:01;;;;;;;13.40;6.15;;;;;;;-12.08;57.89;98596.72;5057322;28;20044;-37
2023/02/22 05:40:28;;;;;;;18.00;6.28;;;;;;;-11.96;57.70;98612.22;5074450;28;20032;-35
2023/02/22 05:42:55;;;;;;;16.42;7.10;;;;;;;-12.16;57.24;98546.38;5093101;28;20047;-36
2023/02/22 05:45:23;;;;;;;17.45;6.75;;;;;;;-11.65;56.97;98599.09;5083869;28;20095;-37
2023/02/22 05:47:49;;;;;;;18.38;6.50;;;;;;;-11.68;56.54;98556.38;5080829;28;20062;-37
2023/02/22 05:50:16;;;;;;;18.13;5.57;;;;;;;-11.34;56.70;98604.34;5094507;28;20047;-36
2023/02/22 05:52:42;;;;;;;18.98;6.68;;;;;;;-11.26;56.68;98602.13;5099075;28;20069;-36
2023/02/22 05:55:11;;;;;;;14.55;6.28;;;;;;;-10.94;56.00;98608.19;5108572;28;20060;-37
2023/02/22 05:57:39;;;;;;;14.95;6.25;;;;;;;-10.80;55.91;98565.16;5089007;28;20064;-37
2023/02/22 06:00:06;;;;;;;20.50;6.38;;;;;;;-10.31;55.44;98594.28;5076412;28;20449;-35
2023/02/22 06:02:38;;;;;;;21.05;8.23;;;;;;;-10.13;53.93;98599.81;5089728;28;20393;-36
2023/02/22 06:05:05;;;;;;;20.17;6.25;;;;;;;-9.90;53.75;98615.56;5091604;28;20093;-39
2023/02/22 06:07:31;;;;;;;20.08;6.85;;;;;;;-9.59;53.67;98617.28;5060831;28;20041;-37
2023/02/22 06:09:57;;;;;;;22.40;6.70;;;;;;;-9.51;53.21;98588.13;5054037;28;20047;-36
2023/02/22 06:12:23;;;;;;;23.10;8.27;;;;;;;-9.09;51.89;98619.44;5071140;28;20135;-36
2023/02/22 06:14:49;;;;;;;14.82;5.93;;;;;;;-9.38;52.11;98580.13;5070260;28;20098;-36
2023/02/22 06:17:15;;;;;;;24.80;7.13;;;;;;;-9.14;51.18;98622.66;5087187;28;20045;-37
2023/02/22 06:19:41;;;;;;;16.38;6.32;;;;;;;-9.18;51.97;98565.53;5052564;28;20044;-36
2023/02/22 06:22:07;;;;;;;24.05;7.18;;;;;;;-8.50;50.60;98625.09;5070385;28;20127;-36
2023/02/22 06:24:33;;;;;;;20.30;6.90;;;;;;;-8.35;50.19;98627.13;5070579;28;20062;-37
2023/02/22 06:27:01;;;;;;;17.98;7.30;;;;;;;-8.27;49.83;98630.66;5073723;28;20105;-37
2023/02/22 06:29:28;;;;;;;25.05;7.20;;;;;;;-7.99;49.30;98632.09;5070031;28;20055;-37
2023/02/22 06:31:54;;;;;;;20.77;6.90;;;;;;;-7.58;49.08;98636.34;5070589;28;20106;-41
2023/02/22 06:34:21;;;;;;;19.98;7.35;;;;;;;-7.30;48.14;98637.75;5082656;28;20067;-36
2023/02/22 06:36:47;;;;;;;21.10;6.13;;;;;;;-7.00;47.52;98629.88;5078745;28;20097;-37
2023/02/22 06:39:17;;;;;;;19.83;7.47;;;;;;;-7.30;47.65;98612.50;5069929;28;20048;-36
2023/02/22 06:41:45;;;;;;;21.63;8.23;;;;;;;-6.93;47.20;98642.66;5073476;28;20094;-37
2023/02/22 06:44:12;;;;;;;19.27;6.80;;;;;;;-6.52;46.66;98635.75;5107569;28;20044;-36
2023/02/22 06:46:38;;;;;;;23.40;7.80;;;;;;;-6.26;45.96;98630.25;5089713;28;20050;-37
2023/02/22 06:49:04;;;;;;;19.50;7.03;;;;;;;-5.78;45.66;98637.66;5091150;28;20090;-36
2023/02/22 06:51:35;;;;;;;22.27;7.60;;;;;;;-5.76;44.86;98608.19;5094411;28;20096;-44
2023/02/22 06:54:01;;;;;;;22.90;7.47;;;;;;;-5.64;44.57;98598.19;5097388;28;20032;-36
2023/02/22 06:56:27;;;;;;;17.65;7.30;;;;;;;-5.36;44.37;98633.16;5035502;28;20036;-37
2023/02/22 06:58:53;;;;;;;16.65;7.60;;;;;;;-5.14;43.95;98651.97;5081227;28;20131;-39
2023/02/22 07:01:19;;;;;;;23.33;6.82;;;;;;;-4.72;43.29;98618.59;5082085;28;20642;-36
2023/02/22 07:03:45;;;;;;;17.83;6.68;;;;;;;-4.07;43.13;98657.16;5079575;28;20040;-37
2023/02/22 07:06:11;;;;;;;20.90;8.48;;;;;;;-3.79;42.63;98655.66;5083401;28;20529;-37
2023/02/22 07:08:36;;;;;;;25.15;7.88;;;;;;;-3.36;41.66;98658.44;5078243;28;20140;-39
2023/02/22 07:11:02;;;;;;;17.42;7.30;;;;;;;-3.03;41.01;98661.94;5082694;28;20594;-37
2023/02/22 07:13:28;;;;;;;19.58;8.15;;;;;;;-2.42;40.44;98662.06;5080354;28;20435;-37
2023/02/22 19:10:27;;;;;;;4.70;2.95;;;;;;;-11.28;63.32;99219.06;5104957;27;20435;-36
2023/02/22 19:12:53;;;;;;;10.27;3.30;;;;;;;-11.18;64.34;99228.69;5104207;28;20042;-37
2023/02/22 19:15:19;;;;;;;9.13;3.55;;;;;;;-11.11;65.35;99226.47;5085051;28;20144;-36
2023/02/22 19:17:45;;;;;;;11.07;4.13;;;;;;;-11.08;65.93;99227.44;5082544;28;20063;-35
2023/02/22 19:20:11;;;;;;;11.20;3.78;;;;;;;-10.91;65.93;99225.66;5083863;28;20047;-37
2023/02/22 19:22:37;;;;;;;13.32;4.63;;;;;;;-10.85;66.24;99226.78;5081960;28;20036;-36
2023/02/22 19:25:03;;;;;;;14.90;3.92;;;;;;;-10.74;66.25;99227.22;5067569;28;20040;-38
2023/02/22 19:27:30;;;;;;;11.20;3.40;;;;;;;-10.88;66.17;99191.50;5084203;28;20127;-36
2023/02/22 19:29:56;;;;;;;14.18;4.97;;;;;;;-10.61;65.51;99231.09;5084418;28;20047;-37
2023/02/22 19:32:22;;;;;;;9.70;4.93;;;;;;;-10.78;66.07;99190.25;5078305;28;20059;-36
2023/02/22 19:35:00;;;;;;;11.07;4.65;;;;;;;-10.53;65.42;99233.16;5102773;28;20072;-36
2023/02/22 19:37:34;;;;;;;12.70;4.25;;;;;;;-10.46;65.33;99242.63;5105494;28;20040;-36
2023/02/22 19:40:02;;;;;;;6.65;3.15;;;;;;;-10.40;65.25;99231.97;5100493;28;20246;-36
2023/02/22 19:42:29;;;;;;;7.88;4.15;;;;;;;-10.38;64.49;99228.75;5085243;28;20122;-36
2023/02/22 19:44:54;;;;;;;11.63;3.97;;;;;;;-10.37;64.49;99234.63;5069378;28;20181;-36
2023/02/22 19:47:21;;;;;;;13.00;4.15;;;;;;;-10.38;64.27;99231.25;5104281;28;20507;-36
2023/02/22 19:49:48;;;;;;;11.02;4.03;;;;;;;-10.34;64.32;99238.09;5086007;28;20045;-36
2023/02/22 19:52:15;;;;;;;12.65;4.07;;;;;;;-10.33;63.53;99242.34;5082730;28;20047;-34
2023/02/22 19:54:41;;;;;;;10.85;3.60;;;;;;;-10.32;63.94;99239.03;5082597;28;20049;-37
2023/02/22 19:57:08;;;;;;;14.60;5.13;;;;;;;-10.32;63.40;99238.19;5101986;28;20434;-35
2023/02/22 19:59:34;;;;;;;9.18;3.63;;;;;;;-10.31;63.34;99245.75;5105438;28;20051;-35
2023/02/22 20:02:00;;;;;;;13.15;4.53;;;;;;;-10.52;63.10;99219.75;5085469;28;20047;-37
2023/02/22 20:04:29;;;;;;;9.85;3.83;;;;;;;-10.52;63.36;99221.44;5076947;28;20120;-36
2023/02/22 20:06:56;;;;;;;9.20;3.90;;;;;;;-10.62;63.34;99204.28;5083405;28;20056;-35
2023/02/22 20:09:28;;;;;;;10.25;3.60;;;;;;;-10.26;62.87;99252.66;5081411;28;20091;-35
2023/02/22 20:11:54;;;;;;;7.70;3.67;;;;;;;-10.50;62.75;99215.69;5078279;28;20125;-37
2023/02/22 20:14:24;;;;;;;8.35;3.38;;;;;;;-10.65;62.64;99194.09;5079329;28;20040;-35
2023/02/22 20:16:51;;;;;;;11.80;4.13;;;;;;;-10.28;63.21;99251.72;5097513;28;20040;-36
2023/02/22 20:19:17;;;;;;;12.13;3.65;;;;;;;-10.26;62.46;99260.19;5077896;28;20028;-35
2023/02/22 20:21:42;;;;;;;9.07;3.88;;;;;;;-10.28;62.83;99255.09;5069060;28;20039;-36
2023/02/22 20:24:17;;;;;;;8.10;3.53;;;;;;;-10.24;62.28;99261.94;5061009;28;20053;-36
2023/02/22 20:26:44;;;;;;;10.45;4.10;;;;;;;-10.23;61.94;99262.81;5066653;28;20068;-37
2023/02/22 20:29:10;;;;;;;8.63;3.58;;;;;;;-10.22;61.79;99265.41;5061759;28;20051;-36
2023/02/22 20:31:38;;;;;;;6.65;2.58;;;;;;;-10.22;62.07;99267.91;5067943;28;20045;-36
2023/02/22 20:34:08;;;;;;;8.60;4.20;;;;;;;-10.23;62.28;99276.25;5059791;28;20534;-35
2023/02/22 20:36:39;;;;;;;11.85;4.40;;;;;;;-10.23;62.08;99268.69;5058147;28;20405;-35
2023/02/22 20:39:06;;;;;;;8.88;3.33;;;;;;;-10.22;62.16;99272.06;5052161;28;20051;-36
2023/02/22 20:41:34;;;;;;;14.70;3.60;;;;;;;-10.25;62.33;99279.47;5060529;28;20039;-35
2023/02/22 20:44:01;;;;;;;12.05;4.13;;;;;;;-10.41;62.04;99245.31;5057746;28;20431;-34
2023/02/22 20:46:30;;;;;;;8.55;3.20;;;;;;;-10.22;61.87;99280.47;5058639;28;20119;-36
2023/02/22 20:48:58;;;;;;;9.23;4.07;;;;;;;-10.20;61.78;99285.56;5049497;28;20064;-36
2023/02/22 20:51:25;;;;;;;9.60;3.25;;;;;;;-10.19;61.71;99284.75;5072848;28;20131;-35
2023/02/22 20:53:52;;;;;;;13.85;3.90;;;;;;;-10.19;62.00;99284.75;5049527;28;20055;-35
2023/02/22 20:56:21;;;;;;;8.93;3.45;;;;;;;-10.18;61.94;99277.28;5055200;28;20177;-35
2023/02/22 20:58:47;;;;;;;9.43;3.73;;;;;;;-10.16;61.83;99288.25;5060159;28;20420;-35
2023/02/22 21:01:17;;;;;;;12.63;4.25;;;;;;;-10.40;61.62;99252.06;5062930;28;20102;-35
2023/02/22 21:03:44;;;;;;;8.63;3.45;;;;;;;-10.16;61.80;99293.28;5068838;28;20044;-36
2023/02/22 21:06:14;;;;;;;10.45;3.78;;;;;;;-10.17;61.76;99289.06;5069936;28;20044;-35
2023/02/22 21:08:44;;;;;;;9.82;3.75;;;;;;;-10.16;61.44;99295.81;5068572;28;20594;-36
2023/02/22 21:11:11;;;;;;;10.18;3.78;;;;;;;-10.15;61.73;99297.47;5069172;28;20047;-35
2023/02/22 21:13:37;;;;;;;10.23;3.70;;;;;;;-10.18;61.79;99299.91;5064987;28;20053;-36
2023/02/22 21:16:05;;;;;;;11.85;4.40;;;;;;;-10.21;61.30;99303.94;5069500;28;20082;-36
2023/02/22 21:18:31;;;;;;;8.80;4.10;;;;;;;-10.25;61.57;99302.94;5069499;28;20039;-36
2023/02/22 21:21:11;;;;;;;9.23;3.45;;;;;;;-10.25;61.03;99307.09;5068185;28;20044;-35
2023/02/22 21:23:38;;;;;;;11.07;3.72;;;;;;;-10.26;61.88;99301.25;5067991;28;20283;-35
2023/02/22 21:26:04;;;;;;;11.52;3.90;;;;;;;-10.25;60.97;99307.97;5068640;28;20106;-36
2023/02/22 21:28:32;;;;;;;15.40;4.13;;;;;;;-10.24;60.93;99302.16;5069378;28;20044;-35
2023/02/22 21:31:07;;;;;;;14.80;4.70;;;;;;;-10.26;61.59;99312.94;5069649;28;20044;-35
2023/02/22 21:33:33;;;;;;;9.80;3.25;;;;;;;-10.28;61.42;99307.84;5068565;28;20041;-35
2023/02/22 21:36:13;;;;;;;12.10;4.05;;;;;;;-10.28;61.28;99309.50;5064014;28;20050;-35
2023/02/22 21:38:40;;;;;;;10.88;3.78;;;;;;;-10.31;60.78;99306.06;5063202;28;20040;-36
2023/02/22 21:41:10;;;;;;;10.57;4.15;;;;;;;-10.32;61.50;99313.56;5068374;28;20079;-35
2023/02/22 21:43:36;;;;;;;10.55;4.18;;;;;;;-10.32;61.94;99316.06;5065292;28;20051;-36
2023/02/22 21:46:03;;;;;;;9.77;3.65;;;;;;;-10.34;61.25;99312.63;5064913;28;20044;-36
2023/02/22 21:48:29;;;;;;;11.90;3.15;;;;;;;-10.36;61.57;99321.75;5066964;28;20190;-35
2023/02/22 21:50:55;;;;;;;15.52;4.60;;;;;;;-10.38;61.99;99311.63;5063994;28;20036;-35
2023/02/22 21:53:22;;;;;;;11.88;4.38;;;;;;;-10.37;61.61;99325.94;5065933;28;20041;-35
2023/02/22 21:55:48;;;;;;;9.93;3.35;;;;;;;-10.61;61.68;99288.84;5061956;28;20590;-36
2023/02/22 21:58:14;;;;;;;9.95;3.92;;;;;;;-10.41;61.40;99334.09;5067804;28;20565;-35
2023/02/22 22:00:43;;;;;;;7.97;3.38;;;;;;;-10.45;61.29;99334.78;5047704;28;20041;-35
2023/02/22 22:03:19;;;;;;;9.23;3.75;;;;;;;-10.45;61.85;99336.44;5064196;28;20055;-35
2023/02/22 22:05:46;;;;;;;9.35;3.17;;;;;;;-10.45;61.52;99339.81;5060695;28;20055;-35
2023/02/22 22:08:21;;;;;;;11.27;3.63;;;;;;;-10.66;61.46;99308.75;5064770;28;20084;-35
2023/02/22 22:10:54;;;;;;;8.27;3.50;;;;;;;-10.49;61.80;99345.50;5062674;28;20040;-34
2023/02/22 22:13:27;;;;;;;9.90;3.78;;;;;;;-10.78;61.99;99299.03;5066427;28;20047;-43
2023/02/22 22:15:53;;;;;;;9.82;3.95;;;;;;;-10.51;61.80;99347.06;5049780;28;20064;-35
2023/02/22 22:18:19;;;;;;;15.02;4.45;;;;;;;-10.52;61.85;99340.31;5066895;28;20064;-34
2023/02/22 22:20:45;;;;;;;10.15;3.47;;;;;;;-10.52;61.46;99339.50;5044555;28;20049;-35
2023/02/22 22:23:13;;;;;;;8.20;3.28;;;;;;;-10.54;61.75;99341.94;5066952;28;20571;-35
2023/02/22 22:25:39;;;;;;;8.32;3.17;;;;;;;-10.53;61.58;99347.81;5066323;28;20130;-34
2023/02/22 22:28:06;;;;;;;9.25;3.35;;;;;;;-10.55;61.55;99345.22;5078239;28;20040;-35
2023/02/22 22:30:36;;;;;;;8.25;3.35;;;;;;;-10.76;61.98;99311.66;5060040;28;20437;-36
2023/02/22 22:33:04;;;;;;;;;;;;;;;-10.56;61.71;99345.16;5059772;28;20394;-35
2023/02/22 22:35:32;;;;;;;9.95;3.45;;;;;;;-10.59;61.62;99348.41;5066580;28;20017;-35
2023/02/22 22:37:59;;;;;;;10.77;3.72;;;;;;;-10.60;61.86;99354.22;5063980;28;20047;-35
2023/02/22 22:40:26;;;;;;;13.15;4.32;;;;;;;-10.59;61.92;99355.94;5046730;28;20761;-35
2023/02/22 22:42:52;;;;;;;10.85;3.63;;;;;;;-10.58;62.05;99359.31;5063836;28;20048;-34
2023/02/22 22:45:18;;;;;;;10.32;3.65;;;;;;;-10.61;61.92;99357.50;5067988;28;20079;-34
2023/02/22 22:47:45;;;;;;;6.80;3.03;;;;;;;-10.64;62.08;99361.56;5066834;28;20491;-36
2023/02/22 22:50:14;;;;;;;9.40;3.83;;;;;;;-10.66;61.99;99358.97;5049394;28;20069;-34
2023/02/22 22:52:47;;;;;;;11.00;4.25;;;;;;;-10.61;62.08;99369.22;5075543;28;20067;-35
2023/02/22 22:55:14;;;;;;;9.50;4.03;;;;;;;-10.64;61.94;99366.56;5068224;28;20040;-36
2023/02/22 22:57:40;;;;;;;11.68;4.50;;;;;;;-10.66;61.46;99369.00;5067876;28;20105;-35
2023/02/22 23:02:56;;;;;;;10.02;4.18;;;;;;;-10.72;61.78;99362.06;5088485;28;20050;-35
2023/02/22 23:05:27;;;;;;;10.68;3.88;;;;;;;-10.76;61.71;99350.19;5086838;28;20035;-35
2023/02/22 23:07:55;;;;;;;9.05;3.60;;;;;;;-10.94;61.55;99318.41;5049157;28;20105;-35
2023/02/22 23:10:27;;;;;;;15.45;4.22;;;;;;;-10.77;62.29;99360.16;5061403;28;20066;-35
2023/02/22 23:12:55;;;;;;;10.30;4.07;;;;;;;-10.77;61.71;99361.00;5066703;28;20499;-36
2023/02/22 23:15:23;;;;;;;11.63;4.57;;;;;;;-10.78;61.70;99351.75;5065467;28;20047;-34
2023/02/22 23:17:57;;;;;;;9.55;3.47;;;;;;;-11.01;62.09;99324.78;5065773;28;20068;-35
2023/02/22 23:20:27;;;;;;;6.22;3.03;;;;;;;-11.02;61.50;99317.19;5066320;28;20056;-35
2023/02/22 23:22:56;;;;;;;11.68;4.05;;;;;;;-10.83;61.29;99362.38;5083272;28;20051;-34
2023/02/22 23:25:22;;;;;;;14.17;4.03;;;;;;;-10.87;61.57;99360.53;5064911;28;20242;-34